Time;durP1;ratioP1;P1;durP2;ratioP2;P2;SDS_P1;SDS_P2;PMS_P1;PMS_P2;Temp;Humidity;BMP_temperature;BMP_pressure;BME280_temperature;BME280_humidity;BME280_pressure;Samples;Min_cycle;Max_cycle;Signal;HPM_P1;HPM_P2
2021/06/20 00:01:04;;;;;;;14.43;12.67;;;27.50;76.80;;;;;;6187991;23;20437;-88
2021/06/20 00:03:31;;;;;;;13.80;12.50;;;27.40;76.10;;;;;;6187576;23;20407;-87
2021/06/20 00:06:05;;;;;;;15.50;12.57;;;27.40;76.20;;;;;;6187996;23;20860;-87
2021/06/20 00:08:31;;;;;;;13.03;11.80;;;27.40;76.80;;;;;;6187734;23;20395;-88
2021/06/20 00:10:58;;;;;;;15.47;13.30;;;27.40;76.10;;;;;;6187057;23;20412;-88
2021/06/20 00:13:25;;;;;;;17.23;12.93;;;27.40;76.40;;;;;;6187994;23;20406;-89
2021/06/20 00:15:52;;;;;;;14.53;12.87;;;27.40;77.00;;;;;;6197335;23;20399;-89
2021/06/20 00:18:20;;;;;;;16.70;12.40;;;27.40;77.00;;;;;;6186904;23;20472;-88
2021/06/20 00:20:48;;;;;;;14.30;12.80;;;27.30;76.80;;;;;;6191753;23;20776;-92
2021/06/20 00:23:15;;;;;;;13.87;12.47;;;27.40;76.70;;;;;;6221324;23;20385;-91
2021/06/20 00:25:42;;;;;;;12.87;11.67;;;27.40;76.50;;;;;;6219253;23;20444;-92
2021/06/20 00:28:09;;;;;;;12.87;11.00;;;27.40;76.70;;;;;;6217303;23;20406;-92
2021/06/20 00:30:37;;;;;;;13.43;12.10;;;27.40;76.60;;;;;;6210218;23;20437;-91
2021/06/20 00:33:05;;;;;;;14.70;12.10;;;27.50;76.70;;;;;;6211098;23;20485;-92
2021/06/20 00:35:33;;;;;;;13.07;11.93;;;27.40;76.20;;;;;;6209390;23;20741;-91
2021/06/20 00:38:00;;;;;;;13.97;11.47;;;27.40;76.50;;;;;;6203674;23;20750;-92
2021/06/20 00:40:27;;;;;;;12.60;11.37;;;27.40;76.60;;;;;;6214315;23;20446;-91
2021/06/20 00:42:54;;;;;;;13.90;12.40;;;27.40;76.10;;;;;;6199057;23;20916;-91
2021/06/20 00:45:22;;;;;;;14.27;12.77;;;27.30;75.90;;;;;;6188683;23;20440;-91
2021/06/20 00:47:49;;;;;;;13.80;12.53;;;27.30;76.20;;;;;;6186647;23;20395;-92
2021/06/20 00:50:17;;;;;;;14.83;13.20;;;27.30;76.10;;;;;;6187307;23;20826;-92
2021/06/20 00:52:45;;;;;;;13.77;12.30;;;27.40;75.70;;;;;;6187031;23;20445;-91
2021/06/20 00:55:14;;;;;;;14.60;12.00;;;27.40;76.00;;;;;;6187105;23;20394;-91
2021/06/20 00:57:41;;;;;;;15.07;13.57;;;27.40;76.30;;;;;;6187731;23;20407;-91
2021/06/20 01:00:10;;;;;;;14.83;13.33;;;27.40;76.00;;;;;;6188053;23;20972;-92
2021/06/20 01:02:37;;;;;;;13.40;12.10;;;27.30;76.40;;;;;;6187959;23;20414;-92
2021/06/20 01:05:07;;;;;;;14.20;12.07;;;27.30;76.50;;;;;;6186587;23;20426;-92
2021/06/20 01:07:34;;;;;;;13.90;12.60;;;27.20;76.90;;;;;;6188331;23;20391;-92
2021/06/20 01:10:03;;;;;;;16.10;13.23;;;27.20;77.50;;;;;;6187178;23;20406;-92
2021/06/20 01:12:30;;;;;;;14.17;11.17;;;27.00;77.70;;;;;;6187429;23;20416;-91
2021/06/20 01:14:57;;;;;;;15.57;12.17;;;27.10;77.70;;;;;;6186614;23;20400;-92
2021/06/20 01:17:24;;;;;;;21.60;11.90;;;27.00;76.00;;;;;;6186320;23;20410;-91
2021/06/20 01:19:51;;;;;;;21.67;11.00;;;27.10;74.40;;;;;;6186993;23;20413;-92
2021/06/20 01:22:24;;;;;;;22.30;10.40;;;27.30;73.10;;;;;;6187509;23;20940;-92
2021/06/20 01:24:53;;;;;;;26.83;10.77;;;27.30;72.40;;;;;;6186622;23;20738;-92
2021/06/20 01:27:23;;;;;;;20.33;10.20;;;27.40;71.60;;;;;;6186479;23;20401;-92
2021/06/20 01:29:50;;;;;;;20.17;11.03;;;27.50;70.90;;;;;;6186410;23;20396;-92
2021/06/20 01:32:18;;;;;;;24.77;11.30;;;27.50;70.50;;;;;;6187710;23;20770;-93
2021/06/20 01:34:46;;;;;;;26.20;10.83;;;27.60;70.00;;;;;;6186761;23;20990;-93
2021/06/20 01:37:15;;;;;;;24.63;10.40;;;27.50;69.80;;;;;;6187536;23;20427;-92
2021/06/20 01:39:43;;;;;;;24.23;10.23;;;27.60;69.60;;;;;;6186454;23;20394;-92
2021/06/20 01:42:13;;;;;;;20.80;11.20;;;27.60;69.10;;;;;;6186307;23;20746;-92
2021/06/20 01:44:51;;;;;;;25.47;9.93;;;27.60;69.10;;;;;;6187761;23;20897;-92
2021/06/20 01:47:18;;;;;;;27.37;10.93;;;27.60;68.90;;;;;;6186172;23;20480;-93
2021/06/20 01:49:45;;;;;;;27.50;10.07;;;27.60;69.00;;;;;;6186259;23;20410;-92
2021/06/20 01:52:12;;;;;;;24.87;10.47;;;27.60;69.20;;;;;;6186516;23;20967;-92
2021/06/20 01:54:50;;;;;;;32.27;11.53;;;27.50;68.90;;;;;;6186122;23;20517;-92
2021/06/20 01:57:20;;;;;;;26.70;11.00;;;27.50;69.00;;;;;;6187520;23;20421;-92
2021/06/20 01:59:47;;;;;;;25.43;10.87;;;27.50;69.10;;;;;;6188154;23;20399;-92
2021/06/20 02:02:14;;;;;;;31.73;10.30;;;27.50;68.80;;;;;;6189788;23;20428;-92
2021/06/20 02:04:41;;;;;;;31.47;10.67;;;27.40;69.40;;;;;;6185835;23;20443;-92
2021/06/20 02:07:09;;;;;;;27.20;10.70;;;27.40;69.70;;;;;;6186684;23;20728;-92
2021/06/20 02:09:36;;;;;;;35.20;11.30;;;27.40;69.90;;;;;;6187217;23;20472;-92
2021/06/20 02:12:03;;;;;;;31.73;11.73;;;27.40;69.40;;;;;;6187417;23;20414;-92
2021/06/20 02:14:32;;;;;;;26.53;11.40;;;27.40;69.20;;;;;;6189800;23;20409;-92
2021/06/20 02:16:58;;;;;;;31.67;12.07;;;27.40;69.30;;;;;;6191328;23;20394;-87
2021/06/20 02:19:25;;;;;;;31.97;11.50;;;27.40;69.40;;;;;;6195981;23;20461;-86
2021/06/20 02:21:52;;;;;;;21.97;10.30;;;27.30;69.30;;;;;;6195064;23;20821;-86
2021/06/20 02:24:18;;;;;;;30.77;10.50;;;27.30;69.40;;;;;;6190798;23;20406;-86
2021/06/20 02:26:45;;;;;;;28.00;10.57;;;27.30;69.70;;;;;;6186490;23;20439;-86
2021/06/20 02:29:12;;;;;;;29.63;10.20;;;27.20;69.60;;;;;;6186610;23;20407;-86
2021/06/20 02:31:40;;;;;;;28.43;11.27;;;27.20;69.80;;;;;;6210560;23;20554;-87
2021/06/20 02:34:06;;;;;;;22.03;10.60;;;27.20;70.10;;;;;;6206888;23;20402;-86
2021/06/20 02:36:33;;;;;;;21.00;9.60;;;27.20;70.10;;;;;;6186874;23;20424;-86
2021/06/20 02:39:00;;;;;;;27.13;9.70;;;27.10;70.20;;;;;;6188156;23;20416;-86
2021/06/20 02:41:27;;;;;;;26.97;10.43;;;27.10;70.30;;;;;;6211844;23;20419;-86
2021/06/20 02:43:55;;;;;;;23.43;9.40;;;27.10;70.60;;;;;;6210042;23;20438;-86
2021/06/20 02:46:22;;;;;;;26.93;10.20;;;27.00;70.80;;;;;;6194603;23;20480;-87
2021/06/20 02:48:50;;;;;;;26.97;10.40;;;27.00;71.10;;;;;;6193605;23;20394;-86
2021/06/20 02:51:16;;;;;;;21.37;10.50;;;27.00;71.40;;;;;;6186724;23;20429;-86
2021/06/20 02:53:43;;;;;;;23.27;9.17;;;26.90;71.60;;;;;;6185863;23;20413;-86
2021/06/20 02:56:10;;;;;;;28.50;10.27;;;26.90;71.80;;;;;;6185478;23;20406;-86
2021/06/20 02:58:37;;;;;;;23.17;10.50;;;26.90;72.40;;;;;;6186031;23;20414;-86
2021/06/20 03:01:03;;;;;;;21.17;10.07;;;27.00;72.60;;;;;;6185739;23;20760;-86
2021/06/20 03:03:30;;;;;;;25.90;11.13;;;27.10;72.30;;;;;;6201247;23;20405;-86
2021/06/20 03:06:02;;;;;;;28.23;11.43;;;27.00;73.10;;;;;;6185790;23;20442;-86
2021/06/20 03:08:28;;;;;;;29.47;12.67;;;27.00;74.10;;;;;;6191203;23;20474;-87
2021/06/20 03:10:55;;;;;;;19.20;10.00;;;27.00;75.20;;;;;;6207508;23;20412;-86
2021/06/20 03:13:22;;;;;;;23.43;11.50;;;26.90;76.00;;;;;;6199453;23;20416;-87
2021/06/20 03:15:49;;;;;;;27.53;11.40;;;26.80;77.00;;;;;;6209131;23;20392;-87
2021/06/20 03:18:15;;;;;;;22.07;10.50;;;26.80;77.90;;;;;;6210631;23;20409;-87
2021/06/20 03:20:42;;;;;;;21.27;10.83;;;26.70;78.50;;;;;;6200162;23;20775;-87
2021/06/20 03:23:11;;;;;;;32.63;12.23;;;26.70;79.00;;;;;;6206013;23;20425;-87
2021/06/20 03:25:38;;;;;;;23.07;10.43;;;26.70;79.20;;;;;;6209531;23;20511;-87
2021/06/20 03:28:05;;;;;;;21.20;11.60;;;26.70;80.00;;;;;;6197451;23;20869;-87
2021/06/20 03:30:32;;;;;;;25.87;13.00;;;26.60;81.30;;;;;;6189229;23;20437;-87
2021/06/20 03:32:58;;;;;;;21.00;10.87;;;26.60;82.30;;;;;;6186117;23;20470;-87
2021/06/20 03:35:25;;;;;;;27.30;11.63;;;26.50;82.80;;;;;;6186725;23;20405;-88
2021/06/20 03:37:52;;;;;;;25.73;10.30;;;26.40;83.40;;;;;;6185159;23;20417;-88
2021/06/20 03:40:21;;;;;;;24.03;10.50;;;26.40;83.90;;;;;;6185954;23;20421;-88
2021/06/20 03:42:47;;;;;;;23.40;10.70;;;26.40;84.20;;;;;;6186002;23;20439;-88
2021/06/20 03:45:14;;;;;;;22.90;10.30;;;26.40;84.40;;;;;;6184847;23;20447;-88
2021/06/20 03:47:41;;;;;;;26.27;11.77;;;26.40;84.30;;;;;;6185364;23;20405;-88
2021/06/20 03:50:10;;;;;;;19.63;11.20;;;26.40;84.70;;;;;;6184464;23;20775;-88
2021/06/20 03:52:37;;;;;;;23.73;10.60;;;26.30;85.00;;;;;;6185192;23;20433;-88
2021/06/20 03:55:05;;;;;;;20.17;10.00;;;26.40;85.00;;;;;;6184667;23;20798;-88
2021/06/20 03:57:33;;;;;;;18.97;10.87;;;26.40;84.70;;;;;;6185271;23;20409;-88
2021/06/20 04:00:00;;;;;;;22.90;10.80;;;26.30;85.00;;;;;;6188060;23;20413;-88
2021/06/20 04:02:26;;;;;;;23.27;11.57;;;26.20;85.60;;;;;;6187383;23;20748;-86
2021/06/20 04:04:53;;;;;;;28.97;12.20;;;26.20;85.80;;;;;;6188006;23;20413;-85
2021/06/20 04:07:20;;;;;;;23.90;11.17;;;26.30;85.80;;;;;;6187676;23;20413;-88
2021/06/20 04:09:46;;;;;;;20.57;10.53;;;26.20;85.70;;;;;;6188196;23;20473;-85
2021/06/20 04:12:14;;;;;;;24.20;11.50;;;26.20;85.90;;;;;;6188047;23;20422;-88
2021/06/20 04:14:44;;;;;;;17.40;9.87;;;26.10;86.30;;;;;;6185515;23;20438;-87
2021/06/20 04:17:10;;;;;;;23.77;9.77;;;26.00;86.70;;;;;;6186463;23;20393;-87
2021/06/20 04:19:37;;;;;;;21.23;10.63;;;26.10;87.00;;;;;;6185645;23;20408;-87
2021/06/20 04:22:05;;;;;;;26.80;11.70;;;26.20;86.70;;;;;;6193737;23;20428;-87
2021/06/20 04:24:31;;;;;;;26.27;11.73;;;26.30;86.30;;;;;;6187431;23;20412;-88
2021/06/20 04:26:58;;;;;;;24.37;10.93;;;26.40;86.60;;;;;;6186048;23;20441;-87
2021/06/20 04:29:25;;;;;;;27.87;12.13;;;26.30;86.80;;;;;;6186312;23;20402;-88
2021/06/20 04:31:53;;;;;;;28.03;11.70;;;26.30;87.10;;;;;;6192319;23;20425;-87
2021/06/20 04:34:20;;;;;;;25.27;12.40;;;26.30;87.90;;;;;;6197132;23;20400;-87
2021/06/20 04:36:47;;;;;;;23.70;11.80;;;26.20;88.80;;;;;;6186252;23;20497;-87
2021/06/20 04:39:14;;;;;;;20.30;11.63;;;26.10;89.60;;;;;;6185621;23;20414;-87
2021/06/20 04:41:41;;;;;;;30.40;11.90;;;26.20;90.20;;;;;;6186524;23;20513;-87
2021/06/20 04:44:42;;;;;;;27.13;10.73;;;26.20;89.80;;;;;;6186477;23;20390;-88
2021/06/20 04:46:57;;;;;;;22.43;11.77;;;26.20;90.00;;;;;;6210901;23;20437;-87
2021/06/20 04:49:24;;;;;;;27.13;12.30;;;26.10;90.10;;;;;;6199334;23;20949;-87
2021/06/20 04:51:51;;;;;;;26.10;12.37;;;26.00;90.50;;;;;;6186701;23;20426;-87
2021/06/20 04:54:17;;;;;;;21.60;11.90;;;25.90;91.10;;;;;;6185613;23;20404;-89
2021/06/20 04:56:44;;;;;;;24.63;11.30;;;26.00;91.60;;;;;;6186166;23;20404;-89
2021/06/20 04:59:11;;;;;;;21.80;11.63;;;26.10;90.60;;;;;;6186305;23;20401;-88
2021/06/20 05:01:38;;;;;;;23.50;10.53;;;26.20;90.30;;;;;;6187165;23;20753;-88
2021/06/20 05:04:07;;;;;;;28.53;11.40;;;26.40;90.00;;;;;;6186654;23;20890;-88
2021/06/20 05:06:35;;;;;;;19.70;11.03;;;26.50;89.80;;;;;;6186296;23;20438;-89
2021/06/20 05:09:01;;;;;;;24.03;9.33;;;26.50;88.90;;;;;;6185729;23;20406;-89
2021/06/20 05:11:28;;;;;;;21.17;8.70;;;26.60;86.60;;;;;;6186054;23;20958;-89
2021/06/20 05:13:55;;;;;;;22.23;10.47;;;26.60;86.30;;;;;;6186545;23;20437;-89
2021/06/20 05:16:22;;;;;;;24.93;9.83;;;26.50;86.30;;;;;;6185866;23;20414;-88
2021/06/20 05:18:49;;;;;;;18.73;9.27;;;26.60;86.30;;;;;;6186767;23;20398;-88
2021/06/20 05:21:17;;;;;;;22.83;11.10;;;26.60;86.10;;;;;;6185773;23;20443;-88
2021/06/20 05:23:43;;;;;;;23.47;9.63;;;26.60;85.50;;;;;;6192331;23;20405;-89
2021/06/20 05:26:10;;;;;;;17.40;9.13;;;26.50;86.00;;;;;;6185898;23;20436;-89
2021/06/20 05:28:37;;;;;;;19.97;11.80;;;26.50;86.70;;;;;;6190758;23;20412;-88
2021/06/20 05:31:03;;;;;;;27.23;10.70;;;26.40;87.20;;;;;;6190658;23;20426;-88
2021/06/20 05:33:30;;;;;;;21.43;10.57;;;26.40;87.70;;;;;;6203161;23;20461;-89
2021/06/20 05:35:57;;;;;;;22.63;9.30;;;26.50;87.50;;;;;;6203081;23;20643;-88
2021/06/20 05:38:25;;;;;;;24.03;10.83;;;26.60;87.00;;;;;;6196921;23;20972;-89
2021/06/20 05:40:52;;;;;;;20.90;8.73;;;26.80;86.20;;;;;;6205022;23;20422;-89
2021/06/20 05:43:19;;;;;;;23.07;9.43;;;27.00;84.70;;;;;;6208598;23;20415;-88
2021/06/20 05:45:48;;;;;;;20.00;8.10;;;27.20;84.10;;;;;;6198091;23;20847;-88
2021/06/20 05:48:14;;;;;;;18.33;6.87;;;27.30;79.50;;;;;;6204807;23;20402;-88
2021/06/20 05:50:41;;;;;;;13.47;5.57;;;27.30;77.40;;;;;;6196750;23;20444;-88
2021/06/20 05:53:08;;;;;;;17.67;4.37;;;27.30;73.80;;;;;;6189184;23;20417;-89
2021/06/20 05:55:36;;;;;;;9.70;5.10;;;27.30;73.00;;;;;;6188058;23;20466;-89
2021/06/20 05:58:03;;;;;;;14.43;4.90;;;27.30;72.40;;;;;;6186463;23;20406;-89
2021/06/20 06:00:30;;;;;;;13.10;5.10;;;27.10;72.30;;;;;;6186541;23;20434;-89
2021/06/20 06:02:58;;;;;;;8.07;4.37;;;27.10;72.90;;;;;;6186723;23;20410;-89
2021/06/20 06:05:25;;;;;;;13.87;5.50;;;27.00;72.80;;;;;;6186887;23;20417;-89
2021/06/20 06:07:51;;;;;;;12.07;4.43;;;27.00;73.10;;;;;;6187399;23;20449;-88
2021/06/20 06:10:18;;;;;;;14.03;6.53;;;27.10;73.30;;;;;;6185622;23;20445;-87
2021/06/20 06:12:47;;;;;;;14.50;4.80;;;27.20;73.60;;;;;;6187536;23;20410;-88
2021/06/20 06:15:15;;;;;;;10.20;4.57;;;27.30;72.90;;;;;;6185999;23;20901;-88
2021/06/20 06:17:41;;;;;;;11.60;5.13;;;27.70;72.60;;;;;;6185837;23;20410;-89
2021/06/20 06:20:09;;;;;;;11.73;5.10;;;28.50;69.90;;;;;;6185098;23;20474;-88
2021/06/20 06:22:36;;;;;;;11.03;5.47;;;28.90;68.10;;;;;;6203539;23;20445;-90
2021/06/20 06:25:03;;;;;;;12.83;5.77;;;29.40;66.70;;;;;;6213602;23;20401;-90
2021/06/20 06:27:30;;;;;;;17.80;6.37;;;30.10;64.80;;;;;;6214535;23;20440;-90
2021/06/20 06:29:58;;;;;;;14.03;5.60;;;30.40;63.10;;;;;;6214922;23;20428;-90
2021/06/20 06:32:25;;;;;;;20.23;7.93;;;30.30;63.40;;;;;;6190530;23;20433;-89
2021/06/20 06:34:51;;;;;;;19.27;9.13;;;29.90;67.30;;;;;;6184302;23;20393;-90
2021/06/20 06:37:18;;;;;;;23.43;10.70;;;29.80;69.60;;;;;;6184537;23;20470;-89
2021/06/20 06:39:45;;;;;;;23.43;9.77;;;29.80;72.40;;;;;;6184589;23;20394;-90
2021/06/20 06:42:12;;;;;;;19.03;9.33;;;29.80;73.00;;;;;;6184405;23;20429;-90
2021/06/20 06:44:38;;;;;;;21.30;10.57;;;29.80;73.60;;;;;;6184256;23;20418;-90
2021/06/20 06:47:06;;;;;;;24.40;10.30;;;29.90;73.20;;;;;;6184387;23;20441;-89
2021/06/20 06:49:33;;;;;;;19.77;9.40;;;29.90;72.70;;;;;;6185123;23;20405;-89
2021/06/20 06:52:00;;;;;;;17.57;10.50;;;29.60;72.80;;;;;;6184335;23;20426;-90
2021/06/20 06:54:27;;;;;;;27.03;10.13;;;29.50;73.90;;;;;;6191067;23;20409;-89
2021/06/20 06:56:53;;;;;;;25.20;11.43;;;29.10;74.50;;;;;;6213469;23;20472;-90
2021/06/20 06:59:20;;;;;;;23.30;10.00;;;28.90;75.70;;;;;;6214131;23;20389;-91
2021/06/20 07:01:47;;;;;;;21.07;9.10;;;28.90;76.10;;;;;;6213353;23;20413;-90
2021/06/20 07:04:15;;;;;;;18.87;10.07;;;29.00;76.00;;;;;;6211492;23;20419;-91
2021/06/20 07:06:41;;;;;;;22.70;9.73;;;29.20;75.50;;;;;;6212625;23;20444;-90
2021/06/20 07:09:08;;;;;;;20.00;8.53;;;29.30;74.30;;;;;;6199981;23;20413;-89
2021/06/20 07:11:35;;;;;;;16.90;8.97;;;29.10;74.10;;;;;;6188418;23;20439;-90
2021/06/20 07:14:01;;;;;;;19.80;8.30;;;28.80;74.90;;;;;;6184965;23;20406;-90
2021/06/20 07:16:28;;;;;;;19.20;8.23;;;28.60;75.40;;;;;;6189539;23;20413;-90
2021/06/20 07:18:55;;;;;;;14.97;6.80;;;28.40;74.60;;;;;;6196590;23;20743;-90
2021/06/20 07:21:23;;;;;;;12.47;7.07;;;28.20;74.20;;;;;;6201827;23;20421;-90
2021/06/20 07:23:50;;;;;;;21.63;8.60;;;28.10;74.70;;;;;;6193865;23;20405;-90
2021/06/20 07:26:17;;;;;;;19.00;7.30;;;28.20;74.80;;;;;;6187434;23;20456;-90
2021/06/20 07:28:45;;;;;;;20.10;6.70;;;28.30;74.90;;;;;;6187654;23;20397;-89
2021/06/20 07:31:13;;;;;;;21.67;7.20;;;28.60;74.60;;;;;;6184928;23;20464;-90
2021/06/20 07:33:40;;;;;;;20.80;7.57;;;28.90;73.90;;;;;;6186924;23;20409;-90
2021/06/20 07:36:10;;;;;;;17.23;8.20;;;29.10;73.10;;;;;;6190865;23;20435;-89
2021/06/20 07:38:38;;;;;;;16.40;7.80;;;29.10;72.70;;;;;;6191445;23;20890;-88
2021/06/20 07:41:05;;;;;;;13.37;7.20;;;29.20;72.50;;;;;;6189227;23;20460;-87
2021/06/20 07:43:32;;;;;;;16.80;7.60;;;29.20;72.30;;;;;;6188502;23;20414;-87
2021/06/20 07:45:58;;;;;;;19.43;7.60;;;29.20;72.00;;;;;;6186782;23;20397;-86
2021/06/20 07:48:25;;;;;;;17.30;6.73;;;29.20;71.70;;;;;;6186652;23;20430;-86
2021/06/20 07:50:52;;;;;;;14.70;6.80;;;28.80;72.50;;;;;;6186284;23;20441;-86
2021/06/20 07:53:19;;;;;;;17.00;8.00;;;27.80;75.60;;;;;;6186902;23;20379;-86
2021/06/20 07:55:47;;;;;;;12.80;7.03;;;27.30;77.70;;;;;;6186760;23;20406;-86
2021/06/20 07:58:13;;;;;;;14.33;6.77;;;27.30;78.90;;;;;;6195384;23;20405;-86
2021/06/20 08:00:40;;;;;;;15.80;8.27;;;27.30;79.00;;;;;;6193739;23;20402;-86
2021/06/20 08:03:07;;;;;;;13.67;7.83;;;27.40;78.10;;;;;;6190044;23;20393;-86
2021/06/20 08:05:34;;;;;;;14.13;6.60;;;27.40;78.30;;;;;;6187480;23;20405;-86
2021/06/20 08:08:01;;;;;;;13.23;7.20;;;27.30;78.00;;;;;;6188044;23;20429;-86
2021/06/20 08:10:28;;;;;;;14.83;8.00;;;27.40;78.20;;;;;;6187306;23;20412;-87
2021/06/20 08:12:56;;;;;;;14.27;7.87;;;27.40;78.60;;;;;;6188852;23;20438;-87
2021/06/20 08:15:23;;;;;;;16.30;7.30;;;27.50;78.50;;;;;;6188114;23;20904;-88
2021/06/20 08:17:49;;;;;;;16.40;7.87;;;27.40;77.40;;;;;;6187812;23;20407;-87
2021/06/20 08:20:17;;;;;;;16.00;7.90;;;27.30;78.40;;;;;;6187561;23;20489;-87
2021/06/20 08:22:44;;;;;;;17.73;6.40;;;27.40;78.70;;;;;;6187832;23;20441;-87
2021/06/20 08:25:13;;;;;;;17.73;7.23;;;27.60;78.00;;;;;;6187889;23;20403;-88
2021/06/20 08:27:40;;;;;;;12.43;6.43;;;27.80;77.70;;;;;;6187932;23;20426;-88
2021/06/20 08:30:11;;;;;;;16.03;6.63;;;28.00;76.10;;;;;;6187813;23;20691;-88
2021/06/20 08:32:38;;;;;;;15.20;7.00;;;28.00;75.10;;;;;;6186891;23;20484;-88
2021/06/20 08:35:06;;;;;;;17.00;7.50;;;27.90;75.50;;;;;;6187554;23;20415;-87
2021/06/20 08:37:33;;;;;;;13.60;7.00;;;27.90;75.80;;;;;;6187299;23;20417;-87
2021/06/20 08:40:00;;;;;;;22.00;11.00;;;27.70;75.90;;;;;;6187839;23;20400;-87
2021/06/20 08:42:26;;;;;;;11.43;6.10;;;27.60;76.50;;;;;;6188768;23;20433;-87
2021/06/20 08:44:53;;;;;;;16.17;6.63;;;27.70;76.80;;;;;;6203283;23;20899;-88
2021/06/20 08:47:21;;;;;;;9.47;6.40;;;27.90;76.20;;;;;;6186142;23;20445;-87
2021/06/20 08:49:48;;;;;;;11.87;7.20;;;28.20;75.10;;;;;;6188348;23;20394;-88
2021/06/20 08:52:15;;;;;;;14.87;6.93;;;28.20;74.20;;;;;;6188196;23;20427;-87
2021/06/20 08:55:00;;;;;;;10.33;6.47;;;28.50;74.80;;;;;;6187155;23;20418;-88
2021/06/20 08:57:31;;;;;;;14.90;6.53;;;28.60;72.90;;;;;;6186305;23;20707;-87
2021/06/20 09:00:00;;;;;;;13.93;6.80;;;28.60;73.40;;;;;;6186981;23;20433;-87
2021/06/20 09:02:30;;;;;;;14.03;6.77;;;28.80;72.30;;;;;;6185976;23;20435;-87
2021/06/20 09:05:06;;;;;;;12.70;6.17;;;28.80;71.60;;;;;;6196557;23;20436;-87
2021/06/20 09:07:36;;;;;;;13.43;6.97;;;28.80;72.10;;;;;;6211985;23;20438;-87
2021/06/20 09:10:16;;;;;;;11.83;6.93;;;28.90;72.30;;;;;;6206207;23;20408;-87
2021/06/20 09:12:45;;;;;;;12.27;6.10;;;29.10;72.30;;;;;;6192964;23;20446;-86
2021/06/20 09:15:13;;;;;;;10.23;5.67;;;29.20;71.40;;;;;;6190033;23;20426;-88
2021/06/20 09:17:47;;;;;;;12.57;5.77;;;29.20;70.80;;;;;;6190949;23;20409;-86
2021/06/20 09:20:14;;;;;;;12.83;6.00;;;29.00;70.70;;;;;;6192105;23;20397;-85
2021/06/20 09:22:41;;;;;;;12.93;6.27;;;28.90;71.50;;;;;;6204020;23;20503;-86
2021/06/20 09:25:11;;;;;;;11.33;6.73;;;28.70;71.90;;;;;;6190656;23;20406;-85
2021/06/20 09:27:39;;;;;;;15.20;7.23;;;28.60;72.50;;;;;;6193737;23;20502;-86
2021/06/20 09:30:12;;;;;;;10.63;7.10;;;28.50;73.60;;;;;;6194262;23;20406;-86
2021/06/20 09:32:51;;;;;;;17.57;6.80;;;28.40;73.40;;;;;;6192330;23;20436;-86
2021/06/20 09:35:18;;;;;;;14.10;6.83;;;28.60;73.40;;;;;;6192958;23;20390;-86
2021/06/20 09:37:51;;;;;;;13.07;6.80;;;28.90;72.40;;;;;;6191083;23;20387;-86
2021/06/20 09:40:18;;;;;;;15.90;7.10;;;28.90;71.40;;;;;;6201621;23;20390;-86
2021/06/20 09:42:45;;;;;;;13.37;6.43;;;28.80;72.00;;;;;;6194080;23;20429;-86
2021/06/20 09:45:12;;;;;;;12.97;6.80;;;28.80;71.70;;;;;;6190802;23;20436;-86
2021/06/20 09:47:42;;;;;;;10.50;6.30;;;28.80;72.00;;;;;;6190329;23;20445;-86
2021/06/20 09:50:10;;;;;;;17.37;7.57;;;28.70;72.50;;;;;;6188131;23;20406;-87
2021/06/20 09:52:37;;;;;;;13.10;7.20;;;28.90;72.70;;;;;;6187529;23;20432;-87
2021/06/20 09:55:09;;;;;;;13.70;5.73;;;29.20;71.40;;;;;;6187851;23;20404;-86
2021/06/20 09:57:41;;;;;;;11.40;6.17;;;29.30;70.80;;;;;;6193809;23;20385;-85
2021/06/20 10:00:08;;;;;;;19.07;6.77;;;29.40;70.30;;;;;;6205208;23;20398;-87
2021/06/20 10:02:36;;;;;;;16.07;7.53;;;29.20;70.20;;;;;;6194789;23;20422;-85
2021/06/20 10:05:05;;;;;;;12.57;6.60;;;28.90;71.40;;;;;;6212516;23;20429;-85
2021/06/20 10:07:31;;;;;;;13.57;7.50;;;29.10;71.50;;;;;;6209122;23;20438;-86
2021/06/20 10:09:59;;;;;;;17.77;7.47;;;29.20;71.80;;;;;;6190927;23;20405;-86
2021/06/20 10:12:27;;;;;;;13.13;6.90;;;29.20;71.20;;;;;;6186484;23;20732;-86
2021/06/20 10:14:56;;;;;;;13.43;7.07;;;29.10;72.50;;;;;;6210708;23;20413;-86
2021/06/20 10:17:29;;;;;;;19.20;8.40;;;28.70;73.10;;;;;;6212647;23;20410;-88
2021/06/20 10:19:58;;;;;;;19.00;7.00;;;28.40;73.40;;;;;;6192284;23;20742;-86
2021/06/20 10:22:35;;;;;;;18.77;6.87;;;28.30;74.10;;;;;;6205902;23;20451;-86
2021/06/20 10:25:03;;;;;;;9.57;5.90;;;28.40;73.90;;;;;;6207696;23;20856;-86
2021/06/20 10:27:32;;;;;;;16.67;7.53;;;28.40;72.70;;;;;;6186435;23;20447;-86
2021/06/20 10:30:02;;;;;;;14.90;6.60;;;28.30;71.20;;;;;;6186418;23;20413;-87
2021/06/20 10:32:36;;;;;;;10.23;7.10;;;28.30;72.70;;;;;;6186959;23;20418;-87
2021/06/20 10:35:05;;;;;;;22.00;7.90;;;28.10;73.20;;;;;;6188148;23;20395;-87
2021/06/20 10:37:36;;;;;;;12.10;6.50;;;28.00;74.00;;;;;;6189178;23;20392;-86
2021/06/20 10:40:05;;;;;;;14.40;6.30;;;27.90;74.30;;;;;;6188682;23;20398;-87
2021/06/20 10:42:36;;;;;;;11.27;6.13;;;28.10;74.80;;;;;;6187504;23;20425;-86
2021/06/20 10:45:04;;;;;;;11.13;6.90;;;28.40;74.30;;;;;;6192746;23;20396;-87
2021/06/20 10:47:32;;;;;;;11.23;5.63;;;28.60;72.30;;;;;;6190199;23;20439;-86
2021/06/20 10:50:02;;;;;;;13.37;5.20;;;28.60;70.80;;;;;;6187887;23;20746;-87
2021/06/20 10:52:28;;;;;;;12.10;5.40;;;28.30;70.40;;;;;;6191515;23;20461;-86
2021/06/20 10:55:10;;;;;;;17.70;6.67;;;28.30;70.50;;;;;;6190114;23;20410;-87
2021/06/20 10:57:49;;;;;;;15.47;5.57;;;28.20;69.60;;;;;;6196848;23;20461;-87
2021/06/20 11:00:30;;;;;;;11.07;5.30;;;28.30;69.90;;;;;;6192858;23;20984;-87
2021/06/20 11:03:08;;;;;;;10.97;5.10;;;28.60;67.80;;;;;;6190677;23;20422;-87
2021/06/20 11:05:44;;;;;;;13.57;4.70;;;29.30;65.30;;;;;;6186424;23;20393;-87
2021/06/20 11:08:11;;;;;;;9.00;4.63;;;29.80;62.20;;;;;;6186955;23;20429;-87
2021/06/20 11:10:40;;;;;;;11.20;4.60;;;30.10;60.90;;;;;;6196637;23;20433;-87
2021/06/20 11:13:07;;;;;;;11.70;4.63;;;30.10;61.10;;;;;;6214143;23;20392;-86
2021/06/20 11:15:33;;;;;;;13.50;4.47;;;30.20;60.60;;;;;;6196715;23;20420;-88
2021/06/20 11:18:07;;;;;;;11.00;4.20;;;30.60;58.90;;;;;;6188967;23;20903;-87
2021/06/20 11:20:35;;;;;;;7.23;3.63;;;31.90;57.40;;;;;;6189690;23;20472;-87
2021/06/20 11:23:03;;;;;;;9.60;4.10;;;32.30;55.40;;;;;;6189484;23;20855;-87
2021/06/20 11:25:30;;;;;;;7.50;3.90;;;32.40;54.20;;;;;;6189688;23;20394;-87
2021/06/20 11:27:58;;;;;;;9.77;4.30;;;32.50;53.80;;;;;;6188961;23;20859;-87
2021/06/20 11:30:25;;;;;;;12.57;3.67;;;32.90;53.50;;;;;;6190012;23;20414;-86
2021/06/20 11:32:52;;;;;;;14.00;4.33;;;34.00;51.70;;;;;;6197875;23;20425;-86
2021/06/20 11:35:20;;;;;;;7.70;3.67;;;35.40;49.20;;;;;;6204170;23;20433;-86
2021/06/20 11:37:49;;;;;;;11.70;3.43;;;35.90;47.50;;;;;;6189738;23;20998;-86
2021/06/20 11:40:19;;;;;;;11.37;5.07;;;35.90;47.30;;;;;;6191735;23;20412;-86
2021/06/20 11:42:48;;;;;;;8.83;4.10;;;35.40;46.70;;;;;;6190742;23;20453;-85
2021/06/20 11:45:19;;;;;;;7.87;3.70;;;35.20;47.30;;;;;;6189175;23;20409;-85
2021/06/20 11:47:47;;;;;;;11.10;5.43;;;34.60;48.60;;;;;;6190045;23;20426;-85
2021/06/20 11:50:18;;;;;;;12.57;5.03;;;34.90;48.60;;;;;;6189810;23;20791;-85
2021/06/20 11:52:47;;;;;;;9.53;4.43;;;35.60;46.80;;;;;;6189057;23;21004;-86
2021/06/20 11:55:17;;;;;;;10.00;4.20;;;35.70;47.00;;;;;;6188926;23;20414;-85
2021/06/20 11:57:44;;;;;;;8.60;4.20;;;36.70;44.80;;;;;;6191990;23;20414;-85
2021/06/20 12:00:14;;;;;;;10.73;4.77;;;35.70;45.20;;;;;;6194491;23;20415;-87
2021/06/20 12:02:43;;;;;;;10.57;5.30;;;35.30;46.60;;;;;;6198651;23;20780;-86
2021/06/20 12:05:15;;;;;;;9.87;4.47;;;35.70;45.90;;;;;;6190404;23;20408;-85
2021/06/20 12:07:43;;;;;;;12.43;4.00;;;35.60;46.50;;;;;;6188418;23;20416;-86
2021/06/20 12:10:13;;;;;;;12.97;5.00;;;35.90;45.40;;;;;;6187612;23;20402;-86
2021/06/20 12:12:40;;;;;;;9.90;4.00;;;35.60;45.40;;;;;;6186789;23;20503;-85
2021/06/20 12:15:08;;;;;;;11.47;4.33;;;36.50;44.70;;;;;;6186686;23;20413;-86
2021/06/20 12:17:36;;;;;;;15.97;4.53;;;37.50;42.40;;;;;;6187694;23;20456;-86
2021/06/20 12:20:05;;;;;;;15.70;5.23;;;37.70;41.90;;;;;;6186897;23;20399;-86
2021/06/20 12:22:31;;;;;;;14.90;5.63;;;37.40;40.10;;;;;;6187637;23;20948;-85
2021/06/20 12:25:01;;;;;;;16.73;5.37;;;37.10;41.70;;;;;;6190586;23;20405;-85
2021/06/20 12:27:33;;;;;;;19.13;5.07;;;37.50;39.60;;;;;;6196834;23;20441;-86
2021/06/20 12:30:11;;;;;;;16.90;4.70;;;37.80;40.60;;;;;;6189594;23;20382;-86
2021/06/20 12:32:38;;;;;;;17.67;5.30;;;38.50;39.00;;;;;;6198400;23;20429;-86
2021/06/20 12:35:07;;;;;;;18.73;6.13;;;38.30;39.10;;;;;;6199340;23;20402;-86
2021/06/20 12:37:39;;;;;;;14.27;4.80;;;38.40;38.50;;;;;;6192555;23;20423;-86